Time;durP1;ratioP1;P1;durP2;ratioP2;P2;SDS_P1;SDS_P2;PMS_P1;PMS_P2;Temp;Humidity;BMP_temperature;BMP_pressure;BME280_temperature;BME280_humidity;BME280_pressure;Samples;Min_cycle;Max_cycle;Signal;HPM_P1;HPM_P2
2023/01/14 00:01:41;;;;;;;;;;;;;;;5.83;81.82;100344.56;108605;1263;71580;-85
2023/01/14 00:04:08;;;;;;;;;;;;;;;5.79;81.75;100345.96;108752;1257;59935;-85
2023/01/14 00:06:36;;;;;;;;;;;;;;;5.76;81.76;100343.26;108636;1262;124912;-85
2023/01/14 00:09:03;;;;;;;;;;;;;;;5.73;81.73;100342.79;108767;1262;74098;-85
2023/01/14 00:11:45;;;;;;;;;;;;;;;5.70;81.76;100344.40;108738;1262;125998;-86
2023/01/14 00:14:14;;;;;;;;;;;;;;;5.65;81.72;100349.29;108866;1260;72841;-86
2023/01/14 00:16:41;;;;;;;;;;;;;;;5.63;81.87;100347.48;108683;1257;126114;-86
2023/01/14 00:19:08;;;;;;;;;;;;;;;5.61;81.79;100355.05;108660;1278;60127;-87
2023/01/14 00:21:35;;;;;;;;;;;;;;;5.60;81.82;100366.47;108762;1257;73334;-87
2023/01/14 00:24:02;;;;;;;;;;;;;;;5.58;81.90;100370.77;108733;1260;125835;-85
2023/01/14 00:26:29;;;;;;;;;;;;;;;5.60;82.03;100367.52;108859;1260;72712;-85
2023/01/14 00:28:55;;;;;;;;;;;;;;;5.65;82.14;100369.29;108660;1257;125468;-86
2023/01/14 00:31:26;;;;;;;;;;;;;;;5.71;82.17;100367.43;108791;1258;59946;-86
2023/01/14 00:33:53;;;;;;;;;;;;;;;5.80;82.30;100368.48;108753;1260;74311;-85
2023/01/14 00:36:21;;;;;;;;;;;;;;;5.92;82.36;100373.27;108787;1257;125109;-86
2023/01/14 00:38:48;;;;;;;;;;;;;;;6.02;82.26;100375.41;108720;1263;72216;-86
2023/01/14 00:41:16;;;;;;;;;;;;;;;6.09;82.13;100373.05;108683;1257;126532;-86
2023/01/14 00:43:45;;;;;;;;;;;;;;;6.12;81.96;100370.75;108801;1257;60168;-85
2023/01/14 00:46:12;;;;;;;;;;;;;;;6.15;81.86;100375.90;108932;1260;73670;-85
2023/01/14 00:48:39;;;;;;;;;;;;;;;6.16;81.78;100373.84;108650;1260;126283;-86
2023/01/14 00:51:06;;;;;;;;;;;;;;;6.17;81.70;100375.79;108580;1262;70720;-85
2023/01/14 00:53:33;;;;;;;;;;;;;;;6.19;81.73;100374.32;108577;1261;125182;-85
2023/01/14 00:56:00;;;;;;;;;;;;;;;6.24;81.74;100378.14;108758;1263;60680;-85
2023/01/14 00:58:27;;;;;;;;;;;;;;;6.28;81.66;100376.02;108787;1257;73858;-85
2023/01/14 01:00:54;;;;;;;;;;;;;;;6.32;81.58;100372.67;108652;1258;125703;-85
2023/01/14 01:03:21;;;;;;;;;;;;;;;6.35;81.57;100366.71;108628;1262;73821;-86
2023/01/14 01:05:48;;;;;;;;;;;;;;;6.38;81.51;100368.20;108707;1258;125467;-85
2023/01/14 01:08:16;;;;;;;;;;;;;;;6.40;81.40;100372.79;108763;1257;59497;-85
2023/01/14 01:10:52;;;;;;;;;;;;;;;6.40;81.34;100371.93;108791;1257;74575;-85
2023/01/14 01:13:19;;;;;;;;;;;;;;;6.42;81.38;100372.69;108638;1258;67663;-85
2023/01/14 01:16:23;;;;;;;;;;;;;;;6.46;81.30;100378.08;108738;1258;72165;-85
2023/01/14 01:19:10;;;;;;;;;;;;;;;6.49;81.28;100380.41;108677;1258;126648;-85
2023/01/14 01:21:59;;;;;;;;;;;;;;;6.50;81.22;100379.08;108800;1258;59924;-85
2023/01/14 01:24:26;;;;;;;;;;;;;;;6.52;81.19;100381.23;108673;1260;125265;-85
2023/01/14 01:30:24;;;;;;;;;;;;;;;6.60;81.11;100381.67;108638;1257;127133;-85
2023/01/14 01:32:55;;;;;;;;;;;;;;;6.64;81.08;100388.10;108625;1273;59970;-85
2023/01/14 01:35:22;;;;;;;;;;;;;;;6.67;81.13;100386.98;108606;1260;125985;-85
2023/01/14 01:37:49;;;;;;;;;;;;;;;6.69;81.06;100384.60;108726;1256;74601;-84
2023/01/14 01:40:16;;;;;;;;;;;;;;;6.71;80.92;100384.70;108732;1262;67268;-85
2023/01/14 01:43:18;;;;;;;;;;;;;;;6.72;80.84;100385.59;108509;1256;124075;-84
2023/01/14 01:46:02;;;;;;;;;;;;;;;6.68;80.64;100383.89;108889;1257;59515;-84
2023/01/14 01:48:39;;;;;;;;;;;;;;;6.60;80.51;100390.23;108891;1262;124610;-84
2023/01/14 01:51:08;;;;;;;;;;;;;;;6.51;80.43;100386.07;108773;1257;74147;-86
2023/01/14 01:53:36;;;;;;;;;;;;;;;6.40;80.29;100384.83;108687;1257;126268;-85
2023/01/14 01:56:03;;;;;;;;;;;;;;;6.30;80.36;100380.98;108699;1257;73163;-85
2023/01/14 01:58:33;;;;;;;;;;;;;;;6.21;80.32;100381.70;108813;1260;59549;-85
2023/01/14 02:01:09;;;;;;;;;;;;;;;6.13;80.46;100384.00;108610;1257;124793;-85
2023/01/14 02:03:56;;;;;;;;;;;;;;;6.04;80.55;100383.86;108704;1260;74167;-85
2023/01/14 02:06:23;;;;;;;;;;;;;;;6.02;80.68;100384.66;108602;1257;125211;-85
2023/01/14 02:08:51;;;;;;;;;;;;;;;6.02;80.78;100383.09;108875;1257;72451;-85
2023/01/14 02:11:18;;;;;;;;;;;;;;;5.99;80.72;100380.70;108664;1257;126641;-85
2023/01/14 02:13:50;;;;;;;;;;;;;;;5.95;80.65;100379.67;108922;1257;59303;-85
2023/01/14 02:16:23;;;;;;;;;;;;;;;5.92;80.74;100385.29;108953;1257;73360;-85
2023/01/14 02:18:50;;;;;;;;;;;;;;;5.88;80.78;100385.48;108682;1257;125806;-85
2023/01/14 02:21:21;;;;;;;;;;;;;;;5.84;80.79;100390.58;108887;1266;72725;-85
2023/01/14 02:24:10;;;;;;;;;;;;;;;5.83;80.88;100390.34;108621;1257;125753;-85
2023/01/14 02:26:40;;;;;;;;;;;;;;;5.82;80.92;100385.25;108739;1258;59330;-86
2023/01/14 02:29:18;;;;;;;;;;;;;;;5.81;81.03;100383.31;108635;1258;125023;-85
2023/01/14 02:32:07;;;;;;;;;;;;;;;5.80;80.96;100388.47;108762;1272;65490;-85
2023/01/14 02:34:34;;;;;;;;;;;;;;;5.78;81.00;100395.71;108822;1258;72812;-86
2023/01/14 02:37:03;;;;;;;;;;;;;;;5.75;81.04;100395.95;108862;1256;125184;-86
2023/01/14 02:39:47;;;;;;;;;;;;;;;5.73;81.01;100394.66;108886;1257;59087;-86
2023/01/14 02:45:05;;;;;;;;;;;;;;;5.70;81.06;100400.45;108710;1257;66860;-86
2023/01/14 02:47:32;;;;;;;;;;;;;;;5.69;81.22;100411.02;108674;1259;125128;-86
2023/01/14 02:49:59;;;;;;;;;;;;;;;5.71;81.27;100410.43;108960;1256;60140;-86
2023/01/14 02:52:26;;;;;;;;;;;;;;;5.76;81.42;100409.94;108907;1256;59180;-86
2023/01/14 02:55:02;;;;;;;;;;;;;;;5.82;81.36;100411.20;108706;1257;125837;-86
2023/01/14 02:57:41;;;;;;;;;;;;;;;5.84;81.29;100414.08;108783;1256;65980;-86
2023/01/14 03:00:08;;;;;;;;;;;;;;;5.84;81.26;100415.63;108644;1257;126110;-84
2023/01/14 03:02:35;;;;;;;;;;;;;;;5.83;81.27;100417.70;108783;1258;59593;-84
2023/01/14 03:05:20;;;;;;;;;;;;;;;5.84;81.18;100418.77;108676;1260;125960;-84
2023/01/14 03:08:03;;;;;;;;;;;;;;;5.86;81.26;100416.39;108948;1256;73795;-84
2023/01/14 03:10:39;;;;;;;;;;;;;;;5.88;81.26;100423.95;108715;1256;67712;-85
2023/01/14 03:13:24;;;;;;;;;;;;;;;5.91;81.31;100425.80;108751;1255;125625;-85
2023/01/14 03:16:08;;;;;;;;;;;;;;;5.95;81.26;100429.66;108759;1256;60421;-85
2023/01/14 03:18:41;;;;;;;;;;;;;;;6.02;81.42;100430.81;108611;1257;125243;-85
2023/01/14 03:21:08;;;;;;;;;;;;;;;6.13;81.47;100437.14;108691;1259;76086;-85
2023/01/14 03:23:38;;;;;;;;;;;;;;;6.20;81.44;100438.63;108684;1257;125681;-85
2023/01/14 03:26:05;;;;;;;;;;;;;;;6.26;81.43;100438.35;108759;1256;73339;-85
2023/01/14 03:28:34;;;;;;;;;;;;;;;6.31;81.36;100436.41;108761;1272;59519;-84
2023/01/14 03:31:02;;;;;;;;;;;;;;;6.36;81.31;100435.73;108650;1257;126867;-84
2023/01/14 03:33:33;;;;;;;;;;;;;;;6.41;81.31;100438.00;108743;1256;73367;-85
2023/01/14 03:36:00;;;;;;;;;;;;;;;6.47;81.25;100435.27;108603;1259;125341;-85
2023/01/14 03:38:34;;;;;;;;;;;;;;;6.52;81.25;100436.33;108789;1257;72298;-85
2023/01/14 03:41:01;;;;;;;;;;;;;;;6.55;81.19;100438.34;108571;1256;125590;-86
2023/01/14 03:43:31;;;;;;;;;;;;;;;6.57;81.13;100439.83;108721;1257;59191;-85
2023/01/14 03:45:58;;;;;;;;;;;;;;;6.59;81.04;100435.51;108676;1257;74679;-85
2023/01/14 03:48:25;;;;;;;;;;;;;;;6.58;81.01;100441.59;108615;1255;126180;-85
2023/01/14 03:50:58;;;;;;;;;;;;;;;6.59;80.94;100447.38;108715;1257;72112;-85
2023/01/14 03:53:25;;;;;;;;;;;;;;;6.61;80.96;100449.88;108589;1257;124862;-85
2023/01/14 03:56:10;;;;;;;;;;;;;;;6.65;81.11;100455.27;108909;1256;59224;-85
2023/01/14 03:58:37;;;;;;;;;;;;;;;6.71;81.06;100460.38;108854;1256;73395;-84
2023/01/14 04:01:06;;;;;;;;;;;;;;;6.74;80.96;100466.58;108772;1256;125224;-84
2023/01/14 04:03:33;;;;;;;;;;;;;;;6.77;80.96;100460.94;108755;1257;71846;-85
2023/01/14 04:06:00;;;;;;;;;;;;;;;6.78;80.91;100468.47;108493;1257;125744;-85
2023/01/14 04:08:27;;;;;;;;;;;;;;;6.78;80.82;100471.61;108885;1257;60676;-86
2023/01/14 04:10:54;;;;;;;;;;;;;;;6.80;80.98;100474.27;108751;1256;74767;-84
2023/01/14 04:16:06;;;;;;;;;;;;;;;6.85;81.04;100478.45;108828;1255;73059;-84
2023/01/14 04:18:33;;;;;;;;;;;;;;;6.86;81.04;100477.98;108827;1256;125666;-85
2023/01/14 04:21:00;;;;;;;;;;;;;;;6.86;81.00;100483.73;108747;1260;60179;-85
2023/01/14 04:23:27;;;;;;;;;;;;;;;6.86;81.07;100487.23;108873;1258;124289;-87
2023/01/14 04:25:55;;;;;;;;;;;;;;;6.86;81.10;100491.58;108909;1262;65555;-85
2023/01/14 04:28:22;;;;;;;;;;;;;;;6.86;81.15;100490.36;108673;1257;72183;-84
2023/01/14 04:30:50;;;;;;;;;;;;;;;6.85;81.18;100489.45;108687;1257;125191;-84
2023/01/14 04:33:17;;;;;;;;;;;;;;;6.86;81.12;100502.23;108859;1256;59891;-85
2023/01/14 04:35:45;;;;;;;;;;;;;;;6.86;81.18;100498.73;108567;1257;125384;-85
2023/01/14 04:38:12;;;;;;;;;;;;;;;6.88;81.14;100500.73;108691;1259;67414;-85
2023/01/14 04:40:39;;;;;;;;;;;;;;;6.88;81.07;100500.73;108785;1256;73205;-85
2023/01/14 04:43:06;;;;;;;;;;;;;;;6.90;81.10;100499.23;108869;1255;124926;-85
2023/01/14 04:45:33;;;;;;;;;;;;;;;6.87;80.90;100491.80;108745;1256;59514;-85
2023/01/14 04:48:00;;;;;;;;;;;;;;;6.79;80.73;100492.05;108624;1256;125470;-85
2023/01/14 04:50:41;;;;;;;;;;;;;;;6.70;80.63;100489.98;108897;1257;67063;-85
2023/01/14 04:53:08;;;;;;;;;;;;;;;6.64;80.76;100496.88;108570;1262;125393;-85
2023/01/14 04:55:37;;;;;;;;;;;;;;;6.64;80.99;100503.68;108684;1256;59432;-85
2023/01/14 04:58:04;;;;;;;;;;;;;;;6.66;80.99;100509.70;108783;1262;59047;-86
2023/01/14 05:00:31;;;;;;;;;;;;;;;6.67;80.88;100516.70;108622;1257;125392;-85
2023/01/14 05:02:58;;;;;;;;;;;;;;;6.62;80.71;100520.89;108871;1258;67135;-85
2023/01/14 05:05:25;;;;;;;;;;;;;;;6.56;80.69;100525.21;108575;1256;125399;-84
2023/01/14 05:07:52;;;;;;;;;;;;;;;6.53;80.73;100528.21;108849;1256;59616;-85
2023/01/14 05:10:19;;;;;;;;;;;;;;;6.48;80.70;100532.58;108712;1256;60180;-85
2023/01/14 05:12:58;;;;;;;;;;;;;;;6.45;80.79;100534.55;108656;1260;124735;-85
2023/01/14 05:15:29;;;;;;;;;;;;;;;6.48;81.00;100536.23;108780;1256;67015;-84
2023/01/14 05:17:57;;;;;;;;;;;;;;;6.55;81.13;100539.64;108935;1254;125278;-85
2023/01/14 05:20:24;;;;;;;;;;;;;;;6.61;81.12;100548.74;108840;1256;59522;-84
2023/01/14 05:22:51;;;;;;;;;;;;;;;6.67;81.22;100552.79;108749;1256;60237;-84
2023/01/14 05:25:18;;;;;;;;;;;;;;;6.72;81.16;100561.70;108743;1256;124463;-84
2023/01/14 05:27:45;;;;;;;;;;;;;;;6.74;81.17;100563.36;108724;1257;65818;-84
2023/01/14 05:30:12;;;;;;;;;;;;;;;6.74;81.04;100570.52;108717;1257;124707;-85
2023/01/14 05:32:39;;;;;;;;;;;;;;;6.73;81.08;100568.88;108646;1256;60090;-85
2023/01/14 05:35:06;;;;;;;;;;;;;;;6.71;80.98;100570.72;108556;1257;125045;-85
2023/01/14 05:37:34;;;;;;;;;;;;;;;6.71;81.03;100581.19;108836;1257;74413;-91
2023/01/14 05:40:01;;;;;;;;;;;;;;;6.74;81.16;100588.47;108766;1256;67274;-90
2023/01/14 05:47:59;;;;;;;;;;;;;;;6.66;80.72;100598.63;108699;1257;125325;-90
2023/01/14 05:50:28;;;;;;;;;;;;;;;6.57;80.75;100589.93;108767;1256;75200;-90
2023/01/14 05:53:04;;;;;;;;;;;;;;;6.44;80.54;100597.63;108800;1256;66301;-91
2023/01/14 05:55:31;;;;;;;;;;;;;;;6.29;80.49;100593.54;108797;1256;71248;-90
2023/01/14 05:57:58;;;;;;;;;;;;;;;6.18;80.47;100599.40;108773;1257;59747;-90
2023/01/14 06:09:00;;;;;;;;;;;;;;;6.00;80.74;100617.46;108777;1256;72932;-89
2023/01/14 06:11:40;;;;;;;;;;;;;;;5.92;80.74;100628.23;108585;1256;124882;-89
2023/01/14 06:14:07;;;;;;;;;;;;;;;5.82;80.84;100631.16;108779;1256;59856;-89
2023/01/14 06:16:40;;;;;;;;;;;;;;;5.73;80.93;100632.49;108957;1256;73280;-89
2023/01/14 06:19:11;;;;;;;;;;;;;;;5.65;81.25;100636.34;108605;1256;124604;-90
2023/01/14 06:21:50;;;;;;;;;;;;;;;5.59;81.36;100642.19;108739;1256;71819;-89
2023/01/14 06:24:23;;;;;;;;;;;;;;;5.54;81.42;100642.46;108658;1256;124260;-89
2023/01/14 06:26:50;;;;;;;;;;;;;;;5.48;81.66;100651.09;108785;1256;59335;-89
2023/01/14 06:29:20;;;;;;;;;;;;;;;5.43;81.76;100658.89;108514;1261;125611;-89
2023/01/14 06:31:50;;;;;;;;;;;;;;;5.38;81.79;100660.59;108862;1256;66481;-88
2023/01/14 06:34:21;;;;;;;;;;;;;;;5.38;81.93;100673.08;108802;1256;71929;-90
2023/01/14 06:36:48;;;;;;;;;;;;;;;5.43;82.28;100681.67;108634;1256;124480;-89
2023/01/14 06:39:15;;;;;;;;;;;;;;;5.48;82.43;100679.12;108784;1256;60530;-89
2023/01/14 06:41:43;;;;;;;;;;;;;;;5.48;82.19;100676.50;108655;1256;124835;-89
2023/01/14 06:44:14;;;;;;;;;;;;;;;5.42;82.01;100675.91;108863;1259;64499;-92
2023/01/14 06:46:41;;;;;;;;;;;;;;;5.38;81.96;100681.61;108767;1256;71167;-92
2023/01/14 06:49:08;;;;;;;;;;;;;;;5.35;81.99;100683.41;108631;1256;124492;-87
2023/01/14 06:51:35;;;;;;;;;;;;;;;5.37;82.01;100687.30;108826;1256;59340;-87
2023/01/14 06:54:02;;;;;;;;;;;;;;;5.40;82.08;100689.52;108702;1256;125279;-87
2023/01/14 06:56:29;;;;;;;;;;;;;;;5.49;82.31;100698.83;108863;1256;66966;-87
2023/01/14 06:58:56;;;;;;;;;;;;;;;5.60;82.33;100695.30;108764;1256;72342;-87
2023/01/14 07:01:23;;;;;;;;;;;;;;;5.73;82.32;100693.42;108950;1256;125123;-87
2023/01/14 07:03:50;;;;;;;;;;;;;;;5.83;82.10;100699.23;109132;1256;59294;-87
2023/01/14 07:06:17;;;;;;;;;;;;;;;5.88;81.92;100695.98;108810;1256;124134;-87
2023/01/14 07:08:44;;;;;;;;;;;;;;;5.89;81.65;100702.30;108803;1256;66097;-88
2023/01/14 07:11:12;;;;;;;;;;;;;;;5.88;81.58;100700.69;108769;1256;125410;-87
2023/01/14 07:13:39;;;;;;;;;;;;;;;5.86;81.36;100711.91;108877;1256;59460;-87
2023/01/14 07:16:07;;;;;;;;;;;;;;;5.83;81.38;100712.68;108625;1256;61371;-88
2023/01/14 07:18:34;;;;;;;;;;;;;;;5.83;81.38;100718.76;107749;1257;125072;-87
2023/01/14 07:21:01;;;;;;;;;;;;;;;5.82;81.34;100721.85;107965;1272;66841;-87
2023/01/14 07:23:28;;;;;;;;;;;;;;;5.80;81.30;100724.73;107742;1257;125464;-87
2023/01/14 07:25:58;;;;;;;;;;;;;;;5.79;81.42;100728.87;107808;1256;61428;-87
2023/01/14 07:28:26;;;;;;;;;;;;;;;5.82;81.42;100730.71;107888;1256;59865;-84
2023/01/14 07:30:53;;;;;;;;;;;;;;;5.85;81.43;100733.83;108089;1256;126135;-85
2023/01/14 07:33:21;;;;;;;;;;;;;;;5.90;81.48;100738.41;108114;1256;66319;-87
2023/01/14 07:35:51;;;;;;;;;;;;;;;5.95;81.49;100737.23;107790;1257;124804;-88
2023/01/14 07:38:19;;;;;;;;;;;;;;;5.98;81.53;100738.63;107720;1256;60337;-86
2023/01/14 07:40:46;;;;;;;;;;;;;;;6.04;81.60;100742.53;107919;1256;59362;-87
2023/01/14 07:43:13;;;;;;;;;;;;;;;6.06;81.46;100739.13;107770;1256;124877;-86
2023/01/14 07:45:40;;;;;;;;;;;;;;;6.05;81.30;100742.72;108030;1256;65883;-87
2023/01/14 07:48:07;;;;;;;;;;;;;;;6.04;81.38;100749.85;107798;1260;124850;-87
2023/01/14 07:50:37;;;;;;;;;;;;;;;6.07;81.43;100758.82;107823;1256;60489;-87
2023/01/14 07:53:04;;;;;;;;;;;;;;;6.13;81.54;100757.91;107798;1255;125481;-87
2023/01/14 07:55:31;;;;;;;;;;;;;;;6.21;81.56;100756.83;107842;1257;73343;-87
2023/01/14 07:58:21;;;;;;;;;;;;;;;6.21;81.35;100759.46;107658;1257;67800;-87
2023/01/14 08:03:54;;;;;;;;;;;;;;;6.23;81.29;100765.29;107925;1257;61344;-89
2023/01/14 08:06:21;;;;;;;;;;;;;;;6.22;81.19;100754.27;108645;1257;125278;-88
2023/01/14 08:08:48;;;;;;;;;;;;;;;6.26;81.24;100758.27;108872;1256;73928;-88
2023/01/14 08:11:15;;;;;;;;;;;;;;;6.25;81.19;100764.81;108667;1256;124881;-83
2023/01/14 08:13:42;;;;;;;;;;;;;;;6.23;81.21;100767.40;108756;1255;71425;-86
2023/01/14 08:16:09;;;;;;;;;;;;;;;6.24;81.21;100774.21;108740;1259;60337;-83
2023/01/14 08:18:36;;;;;;;;;;;;;;;6.26;81.29;100772.73;108608;1259;126297;-84
2023/01/14 08:21:04;;;;;;;;;;;;;;;6.30;81.25;100777.27;108664;1264;75606;-83
2023/01/14 08:23:33;;;;;;;;;;;;;;;6.36;81.32;100777.69;108650;1256;125304;-84
2023/01/14 08:26:01;;;;;;;;;;;;;;;6.42;81.29;100783.88;108782;1256;72028;-84
2023/01/14 08:28:28;;;;;;;;;;;;;;;6.55;81.55;100790.85;108576;1257;232323;-85
2023/01/14 08:31:06;;;;;;;;;;;;;;;6.71;81.53;100794.66;108700;1262;125318;-85
2023/01/14 08:33:33;;;;;;;;;;;;;;;6.93;81.64;100798.20;108755;1260;74931;-85
2023/01/14 08:36:10;;;;;;;;;;;;;;;7.11;81.53;100796.80;108674;1262;125264;-85
2023/01/14 08:38:37;;;;;;;;;;;;;;;7.24;81.22;100799.58;108788;1255;73104;-84
2023/01/14 08:41:07;;;;;;;;;;;;;;;7.34;81.20;100803.10;108733;1257;125232;-84
2023/01/14 08:43:34;;;;;;;;;;;;;;;7.48;81.06;100801.52;108808;1272;59470;-84
2023/01/14 08:46:08;;;;;;;;;;;;;;;7.65;81.06;100804.27;108913;1256;74532;-84
2023/01/14 08:48:47;;;;;;;;;;;;;;;7.84;80.89;100812.16;108677;1257;124665;-84
2023/01/14 08:51:14;;;;;;;;;;;;;;;8.00;80.63;100814.47;108740;1256;73108;-84
2023/01/14 08:53:41;;;;;;;;;;;;;;;8.07;80.29;100815.25;108834;1255;125079;-84
2023/01/14 08:56:09;;;;;;;;;;;;;;;8.09;80.07;100816.03;108811;1257;60509;-85
2023/01/14 08:58:37;;;;;;;;;;;;;;;8.10;79.93;100818.00;108707;1257;74703;-85
2023/01/14 09:01:05;;;;;;;;;;;;;;;8.03;79.52;100819.98;108647;1259;126077;-84
2023/01/14 09:03:35;;;;;;;;;;;;;;;7.91;79.32;100826.89;108803;1256;71990;-85
2023/01/14 09:06:05;;;;;;;;;;;;;;;7.81;79.19;100830.02;108667;1259;124955;-85
2023/01/14 09:17:05;;;;;;;;;;;;;;;7.61;79.26;100830.16;108799;1262;72079;-86
2023/01/14 09:19:41;;;;;;;;;;;;;;;7.59;79.27;100838.27;108632;1256;125769;-82
2023/01/14 09:22:08;;;;;;;;;;;;;;;7.55;79.15;100844.45;108831;1257;60121;-82
2023/01/14 09:24:35;;;;;;;;;;;;;;;7.51;79.10;100847.23;108648;1257;125152;-82
2023/01/14 09:27:02;;;;;;;;;;;;;;;7.48;79.12;100849.40;108874;1256;65606;-82
2023/01/14 09:29:31;;;;;;;;;;;;;;;7.47;79.18;100847.07;108642;1256;125725;-82
2023/01/14 09:31:58;;;;;;;;;;;;;;;7.44;79.19;100847.98;108667;1256;59880;-82
2023/01/14 09:34:25;;;;;;;;;;;;;;;7.39;79.14;100850.77;108814;1256;59879;-82
2023/01/14 09:37:43;;;;;;;;;;;;;;;7.35;79.15;100847.64;108694;1258;125662;-83
2023/01/14 09:40:08;;;;;;;;;;;;;;;7.28;79.15;100844.94;109124;1256;67422;-82
2023/01/14 09:42:47;;;;;;;;;;;;;;;7.26;79.12;100850.77;108953;1256;126253;-89
2023/01/14 09:45:43;;;;;;;;;;;;;;;7.25;79.28;100847.24;108878;1256;60258;-85
2023/01/14 09:48:14;;;;;;;;;;;;;;;7.26;79.28;100846.42;108792;1256;125067;-85
2023/01/14 09:50:41;;;;;;;;;;;;;;;7.28;79.30;100847.20;108771;1262;73520;-85
2023/01/14 09:53:12;;;;;;;;;;;;;;;7.30;79.27;100846.76;108669;1262;68327;-85
2023/01/14 09:55:52;;;;;;;;;;;;;;;7.34;79.31;100852.67;108533;1271;125176;-85
2023/01/14 09:58:39;;;;;;;;;;;;;;;7.36;79.32;100852.25;108674;1256;59220;-85
2023/01/14 10:01:27;;;;;;;;;;;;;;;7.39;79.21;100851.52;108407;1262;124694;-85
2023/01/14 10:04:24;;;;;;;;;;;;;;;7.43;79.30;100854.95;108747;1256;74364;-85
2023/01/14 10:06:51;;;;;;;;;;;;;;;7.47;79.14;100865.92;108795;1256;125218;-85
2023/01/14 10:09:24;;;;;;;;;;;;;;;7.49;79.16;100864.61;108946;1256;71387;-86
2023/01/14 10:11:56;;;;;;;;;;;;;;;7.55;79.23;100866.58;108710;1257;125506;-86
2023/01/14 10:14:35;;;;;;;;;;;;;;;7.67;79.20;100866.89;108789;1257;58950;-85
2023/01/14 10:17:04;;;;;;;;;;;;;;;7.78;79.14;100870.29;108860;1256;74729;-85
2023/01/14 10:19:34;;;;;;;;;;;;;;;7.88;78.97;100869.25;108698;1256;124816;-86
2023/01/14 10:22:07;;;;;;;;;;;;;;;7.95;78.81;100871.28;108756;1256;73357;-86
2023/01/14 10:24:34;;;;;;;;;;;;;;;8.10;78.84;100871.48;108618;1262;125670;-85
2023/01/14 10:27:01;;;;;;;;;;;;;;;8.28;78.79;100867.91;108617;1256;61153;-85
2023/01/14 10:29:28;;;;;;;;;;;;;;;8.42;78.50;100865.30;108744;1257;73866;-86
2023/01/14 10:39:00;;;;;;;;;;;;;;;8.73;77.22;100872.16;108927;1260;60303;-87
2023/01/14 10:41:49;;;;;;;;;;;;;;;8.71;77.16;100872.63;108768;1257;60609;-88
2023/01/14 10:47:53;;;;;;;;;;;;;;;8.82;76.80;100860.73;108490;1257;124292;-87
2023/01/14 10:50:22;;;;;;;;;;;;;;;8.89;76.79;100858.34;108726;1256;72450;-87
2023/01/14 10:53:09;;;;;;;;;;;;;;;8.97;76.80;100858.79;108831;1262;60673;-86
2023/01/14 10:56:07;;;;;;;;;;;;;;;9.13;76.87;100856.86;108792;1256;125291;-86
2023/01/14 11:01:59;;;;;;;;;;;;;;;9.50;76.20;100861.55;108821;1257;65880;-87
2023/01/14 11:04:30;;;;;;;;;;;;;;;9.57;75.89;100863.66;108696;1256;73876;-87
2023/01/14 11:06:57;;;;;;;;;;;;;;;9.50;75.35;100864.88;108612;1256;125582;-87
2023/01/14 11:09:26;;;;;;;;;;;;;;;9.35;75.12;100859.13;108712;1256;59394;-86
2023/01/14 11:12:03;;;;;;;;;;;;;;;9.17;74.98;100853.85;108626;1256;125390;-87
2023/01/14 11:14:39;;;;;;;;;;;;;;;9.02;74.87;100857.57;108820;1272;67395;-87
2023/01/14 11:17:22;;;;;;;;;;;;;;;8.84;74.71;100855.39;108742;1256;71465;-87
2023/01/14 11:19:52;;;;;;;;;;;;;;;8.70;74.88;100852.65;108636;1255;124731;-88
2023/01/14 11:22:20;;;;;;;;;;;;;;;8.60;74.89;100856.30;108702;1256;60953;-88
2023/01/14 11:24:56;;;;;;;;;;;;;;;8.48;74.88;100860.79;108656;1257;124841;-90
2023/01/14 11:27:34;;;;;;;;;;;;;;;8.34;74.95;100867.46;108790;1257;64783;-90
2023/01/14 11:30:04;;;;;;;;;;;;;;;8.25;75.12;100870.45;108687;1256;123390;-88
2023/01/14 11:32:39;;;;;;;;;;;;;;;8.22;75.40;100869.60;108796;1255;59231;-86
2023/01/14 11:39:03;;;;;;;;;;;;;;;8.36;75.84;100865.42;108679;1260;73284;-91
2023/01/14 11:42:03;;;;;;;;;;;;;;;;;;;;;
2023/01/14 11:44:56;;;;;;;;;;;;;;;8.57;76.16;100859.55;107881;1260;73095;-89
2023/01/14 11:47:29;;;;;;;;;;;;;;;8.67;76.27;100859.34;107389;1260;60175;-90
2023/01/14 11:50:19;;;;;;;;;;;;;;;8.72;76.07;100855.86;107413;1263;124908;-91
2023/01/14 11:56:42;;;;;;;;;;;;;;;8.65;75.78;100870.13;107097;1274;66850;-95
2023/01/14 11:59:34;;;;;;;;;;;;;;;8.60;75.93;100876.61;106266;1274;72838;-91
2023/01/14 12:02:25;;;;;;;;;;;;;;;;;;;;;
2023/01/14 12:09:14;;;;;;;;;;;;;;;8.60;76.14;100873.45;106889;1266;75067;-93
2023/01/14 12:12:00;;;;;;;;;;;;;;;8.64;76.04;100880.79;106809;1266;65936;-92
2023/01/14 12:17:50;;;;;;;;;;;;;;;8.67;75.62;100864.97;108460;1266;59008;-94
2023/01/14 12:20:23;;;;;;;;;;;;;;;8.65;75.62;100860.68;108459;1260;123454;-93
2023/01/14 12:23:05;;;;;;;;;;;;;;;8.60;75.53;100862.27;107833;1264;72945;-86
2023/01/14 12:25:53;;;;;;;;;;;;;;;8.53;75.52;100860.29;107311;1260;125098;-92
2023/01/14 12:28:38;;;;;;;;;;;;;;;8.47;75.43;100865.31;107571;1262;73448;-91
2023/01/14 12:31:35;;;;;;;;;;;;;;;8.37;75.39;100870.17;107259;1260;124129;-91
2023/01/14 12:34:18;;;;;;;;;;;;;;;8.27;75.51;100866.32;107027;1265;61383;-91
2023/01/14 12:37:02;;;;;;;;;;;;;;;8.17;75.49;100862.64;107129;1266;124950;-91
2023/01/14 12:45:44;;;;;;;;;;;;;;;7.95;75.98;100847.17;107956;1256;59355;-88
2023/01/14 12:48:17;;;;;;;;;;;;;;;8.02;76.06;100846.52;107759;1259;60719;-89
2023/01/14 12:50:51;;;;;;;;;;;;;;;8.11;76.24;100843.89;107606;1262;75655;-89
2023/01/14 12:53:47;;;;;;;;;;;;;;;8.23;76.22;100843.60;107647;1262;65959;-88
2023/01/14 12:56:25;;;;;;;;;;;;;;;8.29;76.03;100843.33;107811;1256;124650;-89
2023/01/14 12:59:05;;;;;;;;;;;;;;;8.41;76.14;100842.00;108752;1256;59670;-89
2023/01/14 13:02:08;;;;;;;;;;;;;;;8.47;75.80;100838.40;108608;1259;125344;-89
2023/01/14 13:05:01;;;;;;;;;;;;;;;8.46;75.45;100840.45;108708;1257;75547;-89
2023/01/14 13:07:49;;;;;;;;;;;;;;;8.42;75.41;100832.95;108380;1262;124483;-89
2023/01/14 13:10:28;;;;;;;;;;;;;;;8.44;75.29;100830.23;107305;1268;73564;-89
2023/01/14 13:12:59;;;;;;;;;;;;;;;8.49;75.16;100830.23;107284;1262;124508;-88
2023/01/14 13:15:43;;;;;;;;;;;;;;;8.52;75.06;100825.63;107263;1263;60430;-89
2023/01/14 13:18:29;;;;;;;;;;;;;;;8.58;74.95;100822.50;107103;1263;74808;-90
2023/01/14 13:21:09;;;;;;;;;;;;;;;8.61;74.76;100819.79;107244;1267;65737;-89
2023/01/14 13:23:42;;;;;;;;;;;;;;;8.59;74.62;100813.94;107565;1262;72753;-89
2023/01/14 13:26:17;;;;;;;;;;;;;;;8.58;74.59;100817.92;107417;1262;125177;-89
2023/01/14 13:29:05;;;;;;;;;;;;;;;8.58;74.47;100811.13;107265;1268;61120;-90
2023/01/14 13:31:35;;;;;;;;;;;;;;;8.51;74.13;100812.98;107150;1262;124744;-89
2023/01/14 13:34:28;;;;;;;;;;;;;;;8.38;73.88;100822.14;107208;1263;67444;-89
2023/01/14 13:37:25;;;;;;;;;;;;;;;8.24;73.97;100821.64;107190;1263;72964;-91
2023/01/14 13:39:53;;;;;;;;;;;;;;;8.13;73.93;100822.30;107139;1268;60392;-90
2023/01/14 13:42:22;;;;;;;;;;;;;;;8.09;74.05;100820.94;107304;1263;61451;-90
2023/01/14 13:44:51;;;;;;;;;;;;;;;8.06;74.21;100813.80;108464;1256;125211;-91
2023/01/14 13:47:35;;;;;;;;;;;;;;;8.01;74.20;100812.75;108781;1256;67981;-91
2023/01/14 13:50:17;;;;;;;;;;;;;;;7.91;74.20;100811.86;108624;1257;125196;-90
2023/01/14 13:52:47;;;;;;;;;;;;;;;7.86;74.39;100810.65;108714;1256;59710;-89
2023/01/14 13:55:19;;;;;;;;;;;;;;;7.86;74.61;100808.40;108595;1259;125340;-89
2023/01/14 13:57:49;;;;;;;;;;;;;;;7.89;74.73;100815.14;108801;1257;74650;-91
2023/01/14 14:00:24;;;;;;;;;;;;;;;7.91;74.85;100815.38;108745;1262;66554;-93
2023/01/14 14:02:53;;;;;;;;;;;;;;;7.95;74.99;100808.02;107754;1257;123932;-86
2023/01/14 14:05:33;;;;;;;;;;;;;;;7.99;74.96;100811.65;107698;1262;61369;-90
2023/01/14 14:08:20;;;;;;;;;;;;;;;8.04;75.08;100807.80;107092;1256;124545;-89
2023/01/14 14:11:01;;;;;;;;;;;;;;;8.04;74.92;100811.64;107371;1261;73121;-89
2023/01/14 14:16:28;;;;;;;;;;;;;;;7.92;74.71;100809.30;107060;1256;73073;-85